createdAt,value
2019-01-25T00:00:24.189Z,11.07
2019-01-25T00:02:52.678Z,12.17
2019-01-25T00:05:20.896Z,12.03
2019-01-25T00:07:49.200Z,12.23
2019-01-25T00:10:17.576Z,12.33
2019-01-25T00:12:45.799Z,11.53
2019-01-25T00:15:14.051Z,11.97
2019-01-25T00:17:42.276Z,11.40
2019-01-25T00:20:13.700Z,12.07
2019-01-25T00:22:41.928Z,11.47
2019-01-25T00:25:10.171Z,11.87
2019-01-25T00:27:38.408Z,11.80
2019-01-25T00:30:09.907Z,11.10
2019-01-25T00:32:38.371Z,11.30
2019-01-25T00:35:06.700Z,11.13
2019-01-25T00:37:35.160Z,11.70
2019-01-25T00:40:06.342Z,12.10
2019-01-25T00:42:34.913Z,11.23
2019-01-25T00:45:03.387Z,11.13
2019-01-25T00:47:31.612Z,11.17
2019-01-25T00:49:59.839Z,10.90
2019-01-25T00:52:28.094Z,10.90
2019-01-25T00:54:56.315Z,11.27
2019-01-25T00:57:24.801Z,12.00
2019-01-25T00:59:53.256Z,12.10
2019-01-25T01:02:21.513Z,11.00
2019-01-25T01:04:49.777Z,11.67
2019-01-25T01:07:18.069Z,11.13
2019-01-25T01:09:46.318Z,11.20
2019-01-25T01:12:14.568Z,10.70
2019-01-25T01:14:42.791Z,11.37
2019-01-25T01:17:11.039Z,11.37
2019-01-25T01:19:39.263Z,11.20
2019-01-25T01:22:07.509Z,11.60
2019-01-25T01:24:35.729Z,11.20
2019-01-25T01:27:03.988Z,11.40
2019-01-25T01:29:32.240Z,10.67
2019-01-25T01:32:00.480Z,11.37
2019-01-25T01:34:28.719Z,10.97
2019-01-25T01:36:56.948Z,11.63
2019-01-25T01:39:25.272Z,11.47
2019-01-25T01:41:53.487Z,11.03
2019-01-25T01:44:21.735Z,11.17
2019-01-25T01:46:50.199Z,11.40
2019-01-25T01:49:18.432Z,10.77
2019-01-25T01:51:46.679Z,10.87
2019-01-25T01:54:14.923Z,11.30
2019-01-25T01:56:43.143Z,10.93
2019-01-25T01:59:11.398Z,10.90
2019-01-25T02:01:39.620Z,10.57
2019-01-25T02:04:07.866Z,11.03
2019-01-25T02:06:36.092Z,11.87
2019-01-25T02:09:06.080Z,11.60
2019-01-25T02:11:34.308Z,11.30
2019-01-25T02:14:02.567Z,11.47
2019-01-25T02:16:31.024Z,11.50
2019-01-25T02:18:59.244Z,10.77
2019-01-25T02:21:27.490Z,11.20
2019-01-25T02:23:55.708Z,11.00
2019-01-25T02:26:23.964Z,11.27
2019-01-25T02:28:52.421Z,10.73
2019-01-25T02:31:20.659Z,10.90
2019-01-25T02:33:49.135Z,11.27
2019-01-25T02:36:17.387Z,11.27
2019-01-25T02:38:45.611Z,11.10
2019-01-25T02:41:13.860Z,11.37
2019-01-25T02:43:42.119Z,11.30
2019-01-25T02:46:10.346Z,11.73
2019-01-25T02:48:38.589Z,10.73
2019-01-25T02:51:06.834Z,10.47
2019-01-25T02:53:35.061Z,10.47
2019-01-25T02:56:03.522Z,10.97
2019-01-25T02:58:31.771Z,10.70
2019-01-25T03:01:00.048Z,10.50
2019-01-25T03:03:28.354Z,10.87
2019-01-25T03:05:56.692Z,10.77
2019-01-25T03:08:24.919Z,10.13
2019-01-25T03:10:53.147Z,10.73
2019-01-25T03:13:21.395Z,11.10
2019-01-25T03:15:49.623Z,10.87
2019-01-25T03:18:17.852Z,10.47
2019-01-25T03:20:46.095Z,11.00
2019-01-25T03:23:14.361Z,11.57
2019-01-25T03:25:42.611Z,10.03
2019-01-25T03:28:11.082Z,10.77
2019-01-25T03:30:39.305Z,10.60
2019-01-25T03:33:07.549Z,10.93
2019-01-25T03:35:35.818Z,11.50
2019-01-25T03:38:04.318Z,10.60
2019-01-25T03:40:32.584Z,10.27
2019-01-25T03:43:00.830Z,10.47
2019-01-25T03:45:29.280Z,10.83
2019-01-25T03:47:57.530Z,9.90
2019-01-25T03:50:27.475Z,10.47
2019-01-25T03:52:55.940Z,11.17
2019-01-25T03:55:24.246Z,11.27
2019-01-25T03:57:52.724Z,10.37
2019-01-25T04:00:25.717Z,10.23
2019-01-25T04:02:53.945Z,10.50
2019-01-25T04:05:22.423Z,10.67
2019-01-25T04:07:50.669Z,10.80
2019-01-25T04:10:20.651Z,10.40
2019-01-25T04:12:48.892Z,10.90
2019-01-25T04:15:19.604Z,10.50
2019-01-25T04:17:47.823Z,11.00
2019-01-25T04:20:17.702Z,9.87
2019-01-25T04:22:45.936Z,10.90
2019-01-25T04:25:16.403Z,11.07
2019-01-25T04:27:44.628Z,10.27
2019-01-25T04:30:15.965Z,10.77
2019-01-25T04:32:44.472Z,10.20
2019-01-25T04:35:12.719Z,10.47
2019-01-25T04:37:40.956Z,10.20
2019-01-25T04:40:14.476Z,11.00
2019-01-25T04:42:42.727Z,10.73
2019-01-25T04:45:12.927Z,10.27
2019-01-25T04:47:41.200Z,10.17
2019-01-25T04:50:12.293Z,10.93
2019-01-25T04:52:40.548Z,11.03
2019-01-25T04:55:14.598Z,10.53
2019-01-25T04:57:42.871Z,10.00
2019-01-25T05:00:14.769Z,9.93
2019-01-25T05:02:47.893Z,10.23
2019-01-25T05:05:16.141Z,9.93
2019-01-25T05:07:44.375Z,10.10
2019-01-25T05:10:12.606Z,10.20
2019-01-25T05:12:40.835Z,10.00
2019-01-25T05:15:09.096Z,10.23
2019-01-25T05:17:37.342Z,9.93
2019-01-25T05:20:07.176Z,10.13
2019-01-25T05:22:35.400Z,10.07
2019-01-25T05:25:03.628Z,9.83
2019-01-25T05:27:31.876Z,10.00
2019-01-25T05:30:00.238Z,11.13
2019-01-25T05:32:28.517Z,10.87
2019-01-25T05:34:56.984Z,10.80
2019-01-25T05:37:25.207Z,9.43
2019-01-25T05:39:53.463Z,10.70
2019-01-25T05:42:21.696Z,10.57
2019-01-25T05:44:49.917Z,9.80
2019-01-25T05:47:18.383Z,11.10
2019-01-25T05:49:46.605Z,10.27
2019-01-25T05:52:15.894Z,10.53
2019-01-25T05:54:44.155Z,10.40
2019-01-25T05:57:12.610Z,10.13
2019-01-25T05:59:41.101Z,10.40
2019-01-25T06:02:09.594Z,10.53
2019-01-25T06:04:39.481Z,9.90
2019-01-25T06:07:07.707Z,9.67
2019-01-25T06:09:35.963Z,10.57
2019-01-25T06:12:04.219Z,9.93
2019-01-25T06:14:32.444Z,10.00
2019-01-25T06:17:00.671Z,10.90
2019-01-25T06:19:29.692Z,9.80
2019-01-25T06:21:57.937Z,9.83
2019-01-25T06:24:26.206Z,9.93
2019-01-25T06:26:54.468Z,9.73
2019-01-25T06:29:23.004Z,10.03
2019-01-25T06:31:51.262Z,10.10
2019-01-25T06:34:19.759Z,10.37
2019-01-25T06:36:47.979Z,9.97
2019-01-25T06:39:16.240Z,9.60
2019-01-25T06:41:44.503Z,9.50
2019-01-25T06:44:12.743Z,9.90
2019-01-25T06:46:41.224Z,9.43
2019-01-25T06:49:09.503Z,10.10
2019-01-25T06:51:37.719Z,9.50
2019-01-25T06:54:05.942Z,10.77
2019-01-25T06:56:34.195Z,10.37
2019-01-25T06:59:07.059Z,10.40
2019-01-25T07:01:42.744Z,10.07
2019-01-25T07:04:10.955Z,10.20
2019-01-25T07:06:39.235Z,10.17
2019-01-25T07:09:08.517Z,9.90
2019-01-25T07:11:42.096Z,10.10
2019-01-25T07:14:06.732Z,10.07
2019-01-25T07:16:34.957Z,10.00
2019-01-25T07:19:03.464Z,9.87
2019-01-25T07:21:31.715Z,10.73
2019-01-25T07:23:59.927Z,9.43
2019-01-25T07:26:28.238Z,10.07
2019-01-25T07:28:56.508Z,10.33
2019-01-25T07:31:24.773Z,10.30
2019-01-25T07:33:53.019Z,9.80
2019-01-25T07:36:21.289Z,10.60
2019-01-25T07:38:49.520Z,10.37
2019-01-25T07:41:17.760Z,9.00
2019-01-25T07:43:45.978Z,9.93
2019-01-25T07:46:14.228Z,10.03
2019-01-25T07:48:42.486Z,10.37
2019-01-25T07:51:10.745Z,9.93
2019-01-25T07:53:39.037Z,10.57
2019-01-25T07:56:07.296Z,9.90
2019-01-25T07:58:35.593Z,10.00
2019-01-25T08:01:03.828Z,9.77
2019-01-25T08:03:32.241Z,9.80
2019-01-25T08:06:00.512Z,9.67
2019-01-25T08:08:28.829Z,10.07
2019-01-25T08:10:57.066Z,9.50
2019-01-25T08:13:25.404Z,10.23
2019-01-25T08:15:53.632Z,9.87
2019-01-25T08:18:21.848Z,9.90
2019-01-25T08:20:50.333Z,9.53
2019-01-25T08:23:18.567Z,10.03
2019-01-25T08:25:46.813Z,10.47
2019-01-25T08:28:15.037Z,9.97
2019-01-25T08:30:43.424Z,10.53
2019-01-25T08:33:11.960Z,9.50
2019-01-25T08:35:40.202Z,9.90
2019-01-25T08:38:08.517Z,11.03
2019-01-25T08:40:36.989Z,10.80
2019-01-25T08:43:05.257Z,10.90
2019-01-25T08:45:33.820Z,9.87
2019-01-25T08:48:02.154Z,9.90
2019-01-25T08:50:30.576Z,10.17
2019-01-25T08:52:59.020Z,10.63
2019-01-25T08:55:27.306Z,10.80
2019-01-25T08:57:55.755Z,10.77
2019-01-25T09:00:25.713Z,9.60
2019-01-25T09:02:53.940Z,10.73
2019-01-25T09:05:22.209Z,10.23
2019-01-25T09:07:50.408Z,9.70
2019-01-25T09:10:25.659Z,10.13
2019-01-25T09:12:53.902Z,9.33
2019-01-25T09:15:27.928Z,9.07
2019-01-25T09:17:56.172Z,10.17
2019-01-25T09:20:24.402Z,9.93
2019-01-25T09:22:52.663Z,10.07
2019-01-25T09:25:20.931Z,9.93
2019-01-25T09:27:49.159Z,10.63
2019-01-25T09:30:20.096Z,9.50
2019-01-25T09:32:48.325Z,9.63
2019-01-25T09:35:16.811Z,9.77
2019-01-25T09:37:45.027Z,9.83
2019-01-25T09:40:22.451Z,10.93
2019-01-25T09:42:50.948Z,10.00
2019-01-25T09:45:19.512Z,9.50
2019-01-25T09:47:47.978Z,10.47
2019-01-25T09:50:21.015Z,10.37
2019-01-25T09:52:49.272Z,10.40
2019-01-25T09:55:20.559Z,10.30
2019-01-25T09:57:48.847Z,10.17
2019-01-25T10:00:32.493Z,10.47
2019-01-25T10:03:00.738Z,10.20
2019-01-25T10:05:28.955Z,10.53
2019-01-25T10:07:57.484Z,10.07
2019-01-25T10:10:25.724Z,10.73
2019-01-25T10:12:53.951Z,10.67
2019-01-25T10:15:25.046Z,10.83
2019-01-25T10:17:53.255Z,11.00
2019-01-25T10:20:21.483Z,10.50
2019-01-25T10:22:49.737Z,10.70
2019-01-25T10:25:17.963Z,10.60
2019-01-25T10:27:47.245Z,10.50
2019-01-25T10:30:27.493Z,10.23
2019-01-25T10:32:55.735Z,10.17
2019-01-25T10:35:23.975Z,10.43
2019-01-25T10:37:52.760Z,10.30
2019-01-25T10:40:22.062Z,10.30
2019-01-25T10:42:53.269Z,11.33
2019-01-25T10:45:26.100Z,10.60
2019-01-25T10:47:54.343Z,10.43
2019-01-25T10:50:22.580Z,10.10
2019-01-25T10:52:50.808Z,10.30
2019-01-25T10:55:19.064Z,9.77
2019-01-25T10:57:47.293Z,10.37
2019-01-25T11:00:22.747Z,10.20
2019-01-25T11:02:57.724Z,9.80
2019-01-25T11:05:23.236Z,10.50
2019-01-25T11:07:51.489Z,10.20
2019-01-25T11:10:19.718Z,10.80
2019-01-25T11:12:47.967Z,10.57
2019-01-25T11:15:25.880Z,10.33
2019-01-25T11:17:54.157Z,10.33
2019-01-25T11:20:26.112Z,10.27
2019-01-25T11:22:54.416Z,10.97
2019-01-25T11:25:31.265Z,10.27
2019-01-25T11:27:59.511Z,10.33
2019-01-25T11:30:27.733Z,11.20
2019-01-25T11:32:55.979Z,10.43
2019-01-25T11:35:24.227Z,10.90
2019-01-25T11:37:52.544Z,10.13
2019-01-25T11:40:26.467Z,11.00
2019-01-25T11:42:54.721Z,10.70
2019-01-25T11:45:22.947Z,11.23
2019-01-25T11:47:51.198Z,10.93
2019-01-25T11:50:20.576Z,10.23
2019-01-25T11:52:48.843Z,10.67
2019-01-25T11:55:18.357Z,10.70
2019-01-25T11:57:46.630Z,10.70
2019-01-25T12:00:17.676Z,10.63
2019-01-25T12:02:45.944Z,10.83
2019-01-25T12:05:16.411Z,10.70
2019-01-25T12:07:44.888Z,11.23
2019-01-25T12:10:16.147Z,11.10
2019-01-25T12:12:44.424Z,10.67
2019-01-25T12:15:14.835Z,10.67
2019-01-25T12:17:43.059Z,10.63
2019-01-25T12:20:21.987Z,10.80
2019-01-25T12:22:50.262Z,10.67
2019-01-25T12:25:18.484Z,10.47
2019-01-25T12:27:46.750Z,10.83
2019-01-25T12:30:23.236Z,10.67
2019-01-25T12:32:51.451Z,10.53
2019-01-25T12:35:19.749Z,11.20
2019-01-25T12:37:50.137Z,19.17
2019-01-25T12:40:20.305Z,16.23
2019-01-25T12:42:48.659Z,13.53
2019-01-25T12:45:30.826Z,14.53
2019-01-25T12:47:59.156Z,15.37
2019-01-25T12:50:39.636Z,14.30
2019-01-25T12:53:09.616Z,13.87
2019-01-25T12:55:37.936Z,13.97
2019-01-25T12:58:06.316Z,13.13
2019-01-25T13:00:34.608Z,14.07
2019-01-25T13:03:02.848Z,14.03
2019-01-25T13:05:31.100Z,14.07
2019-01-25T13:07:59.400Z,14.20
2019-01-25T13:10:28.323Z,14.53
2019-01-25T13:12:56.574Z,13.93
2019-01-25T13:15:24.864Z,13.37
2019-01-25T13:17:53.119Z,13.37
2019-01-25T13:20:26.545Z,13.37
2019-01-25T13:22:54.860Z,13.90
2019-01-25T13:25:23.107Z,13.50
2019-01-25T13:27:51.555Z,13.83
2019-01-25T13:30:24.914Z,12.77
2019-01-25T13:32:53.152Z,12.90
2019-01-25T13:35:21.503Z,12.97
2019-01-25T13:37:49.806Z,13.27
2019-01-25T13:40:20.093Z,12.67
2019-01-25T13:42:48.359Z,13.00
2019-01-25T13:45:18.067Z,13.07
2019-01-25T13:47:46.372Z,13.07
2019-01-25T13:50:16.864Z,13.23
2019-01-25T13:52:45.105Z,13.90
2019-01-25T13:55:14.872Z,13.53
2019-01-25T13:57:43.180Z,13.77
2019-01-25T14:00:23.366Z,13.33
2019-01-25T14:02:51.671Z,13.50
2019-01-25T14:05:19.898Z,13.67
2019-01-25T14:07:48.136Z,13.43
2019-01-25T14:10:24.720Z,13.97
2019-01-25T14:12:52.987Z,13.20
2019-01-25T14:15:21.273Z,13.87
2019-01-25T14:17:49.760Z,13.40
2019-01-25T14:20:31.589Z,14.40
2019-01-25T14:22:59.825Z,13.83
2019-01-25T14:25:28.309Z,14.00
2019-01-25T14:27:56.548Z,13.50
2019-01-25T14:30:30.491Z,14.00
2019-01-25T14:32:58.785Z,13.90
2019-01-25T14:35:27.040Z,14.70
2019-01-25T14:37:55.280Z,14.33
2019-01-25T14:40:23.743Z,14.80
2019-01-25T14:42:51.989Z,15.20
2019-01-25T14:45:20.621Z,15.10
2019-01-25T14:47:48.884Z,14.40
2019-01-25T14:50:22.704Z,14.67
2019-01-25T14:52:50.959Z,14.30
2019-01-25T14:55:19.265Z,14.67
2019-01-25T14:57:47.509Z,15.37
2019-01-25T15:00:15.808Z,14.67
2019-01-25T15:02:44.060Z,14.03
2019-01-25T15:05:15.556Z,14.83
2019-01-25T15:07:43.824Z,14.67
2019-01-25T15:10:15.063Z,15.00
2019-01-25T15:12:43.388Z,16.10
2019-01-25T15:15:13.329Z,16.90
2019-01-25T15:17:41.612Z,15.00
2019-01-25T15:20:12.685Z,15.77
2019-01-25T15:22:40.939Z,16.03
2019-01-25T15:25:09.189Z,16.80
2019-01-25T15:27:37.444Z,17.17
2019-01-25T15:30:08.954Z,16.37
2019-01-25T15:32:37.210Z,16.03
2019-01-25T15:35:08.191Z,16.37
2019-01-25T15:37:36.502Z,15.97
2019-01-25T15:40:08.684Z,15.27
2019-01-25T15:42:36.907Z,16.77
2019-01-25T15:45:14.049Z,15.70
2019-01-25T15:47:42.320Z,15.57
2019-01-25T15:50:13.389Z,16.20
2019-01-25T15:52:41.655Z,16.33
2019-01-25T15:55:10.487Z,15.17
2019-01-25T15:57:38.753Z,15.70
2019-01-25T16:00:12.876Z,16.43
2019-01-25T16:02:41.119Z,15.90
2019-01-25T16:05:11.460Z,16.23
2019-01-25T16:07:39.798Z,15.20
2019-01-25T16:10:10.956Z,15.93
2019-01-25T16:12:39.424Z,13.87
2019-01-25T16:15:13.052Z,15.33
2019-01-25T16:17:41.294Z,15.80
2019-01-25T16:20:11.910Z,14.33
2019-01-25T16:22:40.208Z,15.33
2019-01-25T16:25:14.128Z,15.10
2019-01-25T16:27:42.659Z,16.17
2019-01-25T16:30:22.272Z,15.33
2019-01-25T16:32:50.517Z,15.67
2019-01-25T16:35:18.800Z,14.13
2019-01-25T16:37:47.120Z,15.23
2019-01-25T16:40:17.204Z,14.23
2019-01-25T16:42:45.804Z,15.60
2019-01-25T16:45:19.510Z,15.73
2019-01-25T16:47:47.777Z,15.13
2019-01-25T16:50:23.415Z,15.13
2019-01-25T16:52:46.266Z,15.07
2019-01-25T16:55:15.567Z,15.07
2019-01-25T16:57:43.813Z,15.83
2019-01-25T17:00:21.264Z,16.33
2019-01-25T17:02:49.513Z,15.90
2019-01-25T17:05:18.026Z,15.63
2019-01-25T17:07:46.260Z,16.83
2019-01-25T17:10:14.875Z,15.47
2019-01-25T17:12:43.747Z,14.57
2019-01-25T17:15:13.891Z,14.97
2019-01-25T17:17:42.116Z,16.10
2019-01-25T17:20:18.419Z,15.33
2019-01-25T17:22:43.016Z,14.47
2019-01-25T17:25:13.158Z,16.03
2019-01-25T17:27:41.428Z,14.57
2019-01-25T17:30:21.768Z,14.40
2019-01-25T17:32:50.579Z,14.40
2019-01-25T17:35:18.816Z,14.33
2019-01-25T17:37:47.093Z,14.63
2019-01-25T17:40:17.787Z,15.37
2019-01-25T17:42:46.016Z,14.60
2019-01-25T17:45:14.480Z,14.70
2019-01-25T17:47:42.703Z,14.80
2019-01-25T17:50:13.213Z,14.60
2019-01-25T17:52:41.430Z,14.37
2019-01-25T17:55:11.615Z,14.53
2019-01-25T17:57:39.852Z,14.57
2019-01-25T18:00:16.956Z,15.47
2019-01-25T18:02:45.349Z,14.37
2019-01-25T18:05:13.607Z,15.03
2019-01-25T18:07:41.941Z,14.17
2019-01-25T18:10:13.596Z,14.77
2019-01-25T18:12:41.839Z,14.90
2019-01-25T18:15:12.643Z,14.57
2019-01-25T18:17:41.131Z,13.93
2019-01-25T18:20:12.104Z,14.47
2019-01-25T18:22:40.360Z,14.73
2019-01-25T18:25:11.582Z,14.13
2019-01-25T18:27:42.963Z,14.87
2019-01-25T18:30:29.777Z,14.73
2019-01-25T18:32:58.011Z,15.33
2019-01-25T18:35:26.232Z,13.93
2019-01-25T18:37:54.787Z,14.30
2019-01-25T18:40:23.090Z,14.97
2019-01-25T18:42:51.313Z,14.50
2019-01-25T18:45:19.566Z,14.00
2019-01-25T18:47:47.796Z,14.33
2019-01-25T18:50:16.417Z,13.77
2019-01-25T18:52:44.725Z,14.70
2019-01-25T18:55:19.011Z,12.80
2019-01-25T18:57:47.224Z,13.13
2019-01-25T19:00:17.947Z,13.53
2019-01-25T19:02:46.180Z,12.80
2019-01-25T19:05:14.882Z,13.57
2019-01-25T19:07:43.215Z,12.53
2019-01-25T19:10:14.769Z,14.13
2019-01-25T19:12:43.022Z,13.57
2019-01-25T19:15:14.888Z,13.67
2019-01-25T19:17:43.148Z,12.90
2019-01-25T19:20:13.212Z,13.27
2019-01-25T19:22:41.684Z,13.93
2019-01-25T19:25:10.996Z,13.07
2019-01-25T19:27:39.253Z,13.40
2019-01-25T19:30:22.689Z,13.33
2019-01-25T19:32:50.949Z,14.07
2019-01-25T19:35:19.183Z,12.33
2019-01-25T19:37:47.440Z,13.43
2019-01-25T19:40:27.284Z,13.57
2019-01-25T19:42:55.533Z,13.50
2019-01-25T19:45:23.781Z,12.93
2019-01-25T19:47:52.040Z,13.40
2019-01-25T19:50:20.419Z,13.47
2019-01-25T19:52:48.669Z,12.23
2019-01-25T19:55:22.509Z,12.77
2019-01-25T19:57:50.878Z,12.43
2019-01-25T20:00:27.208Z,12.63
2019-01-25T20:02:55.435Z,11.77
2019-01-25T20:05:31.738Z,12.70
2019-01-25T20:08:00.006Z,12.17
2019-01-25T20:10:28.234Z,11.83
2019-01-25T20:12:56.636Z,12.60
2019-01-25T20:15:26.194Z,12.17
2019-01-25T20:17:54.691Z,12.07
2019-01-25T20:20:36.856Z,13.40
2019-01-25T20:23:05.357Z,13.00
2019-01-25T20:25:33.581Z,12.60
2019-01-25T20:28:01.835Z,12.20
2019-01-25T20:30:33.640Z,12.10
2019-01-25T20:33:03.208Z,12.13
2019-01-25T20:35:33.724Z,12.30
2019-01-25T20:38:02.035Z,11.63
2019-01-25T20:40:30.275Z,11.93
2019-01-25T20:42:58.735Z,12.33
2019-01-25T20:45:34.832Z,12.33
2019-01-25T20:48:03.394Z,12.47
2019-01-25T20:50:33.267Z,12.10
2019-01-25T20:53:01.572Z,12.10
2019-01-25T20:55:29.815Z,11.60
2019-01-25T20:57:58.680Z,11.97
2019-01-25T21:00:29.222Z,12.63
2019-01-25T21:02:57.684Z,11.73
2019-01-25T21:05:25.940Z,12.70
2019-01-25T21:07:54.166Z,12.30
2019-01-25T21:10:24.268Z,11.47
2019-01-25T21:12:52.584Z,11.47
2019-01-25T21:15:23.111Z,12.13
2019-01-25T21:17:51.343Z,12.17
2019-01-25T21:20:28.547Z,11.80
2019-01-25T21:22:57.076Z,11.43
2019-01-25T21:25:25.317Z,12.10
2019-01-25T21:27:53.560Z,12.10
2019-01-25T21:30:24.258Z,12.17
2019-01-25T21:32:52.484Z,11.67
2019-01-25T21:35:20.727Z,11.70
2019-01-25T21:37:49.202Z,11.63
2019-01-25T21:40:22.615Z,12.30
2019-01-25T21:42:50.845Z,12.37
2019-01-25T21:45:21.103Z,11.90
2019-01-25T21:47:49.495Z,11.40
2019-01-25T21:50:19.692Z,11.20
2019-01-25T21:52:47.907Z,11.10
2019-01-25T21:55:16.546Z,11.73
2019-01-25T21:57:44.801Z,11.37
2019-01-25T22:00:18.380Z,11.50
2019-01-25T22:02:46.632Z,11.63
2019-01-25T22:05:14.896Z,11.93
2019-01-25T22:07:43.217Z,11.50
2019-01-25T22:10:17.164Z,11.03
2019-01-25T22:12:45.659Z,11.10
2019-01-25T22:15:16.292Z,11.53
2019-01-25T22:17:44.551Z,11.47
2019-01-25T22:20:15.984Z,11.03
2019-01-25T22:22:44.387Z,11.13
2019-01-25T22:25:13.066Z,12.30
2019-01-25T22:27:41.462Z,11.50
2019-01-25T22:30:13.221Z,11.30
2019-01-25T22:32:41.488Z,10.77
2019-01-25T22:35:09.751Z,10.27
2019-01-25T22:37:38.151Z,11.80
2019-01-25T22:40:09.783Z,11.70
2019-01-25T22:42:38.272Z,11.17
2019-01-25T22:45:11.987Z,11.20
2019-01-25T22:47:40.219Z,10.63
2019-01-25T22:50:11.889Z,10.47
2019-01-25T22:52:40.181Z,11.17
2019-01-25T22:55:11.471Z,10.90
2019-01-25T22:57:39.709Z,11.47
2019-01-25T23:00:11.283Z,10.70
2019-01-25T23:02:39.547Z,10.73
2019-01-25T23:05:14.895Z,11.10
2019-01-25T23:07:43.146Z,11.47
2019-01-25T23:10:11.368Z,10.53
2019-01-25T23:12:39.621Z,11.40
2019-01-25T23:15:09.434Z,10.87
2019-01-25T23:17:37.660Z,9.70
2019-01-25T23:20:08.524Z,11.13
2019-01-25T23:22:37.275Z,11.43
2019-01-25T23:25:07.295Z,10.90
2019-01-25T23:27:35.786Z,10.37
2019-01-25T23:30:06.111Z,10.30
2019-01-25T23:32:34.604Z,10.00
2019-01-25T23:35:02.856Z,11.67
2019-01-25T23:37:31.090Z,9.93
2019-01-25T23:39:59.339Z,10.70
2019-01-25T23:42:27.563Z,10.97
2019-01-25T23:44:56.048Z,10.07
2019-01-25T23:47:24.627Z,10.53
2019-01-25T23:49:52.970Z,10.30
2019-01-25T23:52:21.201Z,11.10
2019-01-25T23:54:49.438Z,10.73
2019-01-25T23:57:17.933Z,10.77
2019-01-25T23:59:46.167Z,11.27
